Terminal Aerodrome Forecast
Issued by NWS Mt. Holly, NJ

Current Version | Previous Version | Text Only | Print | Product List | Glossary On
Versions: 1 2 3 4 5 6 7 8 9 10 11 12 13 14 15 16 17 18 19 20 21
000
FTUS41 KPHI 201100
TAFPHL
TAF
KPHL 201120Z 2012/2118 19003KT P6SM BKN250
     FM201500 22010KT P6SM SCT150 BKN250
     FM210000 21005KT P6SM BKN150
     FM210400 21005KT P6SM OVC100
     FM210800 24003KT P6SM SCT040 OVC080=

USA.gov is the U.S. government's official web portal to all federal, state and local government web resources and services.